EDNX weather

Oberschleißheim Airfield
Oberschleißheim, Bavaria, Germany

Public forecast

Using degrees Celsius for public forecast. Weather courtesy of forecast.io.

Closest aviation weather report (METAR) to Oberschleißheim Airfield

Closest report is Munich Airport, 11.3 nm (20.9 km) NE. Retrieved 2020/07/11 17:20 UTC (4 minutes ago):

EDDM 111720Z 11005KT 070V130 9999 VCSH FEW045TCU 16/13 Q1023 NOSIG

Closest aviation forecast (TAF) to Oberschleißheim Airfield

Closest forecast is Munich Airport, 11.3 nm (20.9 km) NE. Retrieved 2020/07/11 12:27 UTC (5 hours ago):

TAF EDDM 111100Z 1112/1218 35005KT 9999 SCT014 BKN025 PROB30 TEMPO 1113/1116 SHRA BKN020TCU BECMG 1115/1117 VRB03KT BECMG 1201/1203 1200 BCFG PROB30 TEMPO 1202/1205 0600 FG BECMG 1205/1207 07006KT 9999